Time;durP1;ratioP1;P1;durP2;ratioP2;P2;SDS_P1;SDS_P2;PMS_P1;PMS_P2;Temp;Humidity;BMP_temperature;BMP_pressure;BME280_temperature;BME280_humidity;BME280_pressure;Samples;Min_cycle;Max_cycle;Signal;HPM_P1;HPM_P2
2022/03/08 00:04:29;;;;;;;20.75;13.45;;;7.80;70.60;;;;;;10983891;32;20302;-74
2022/03/08 00:10:31;;;;;;;19.20;12.48;;;7.80;70.20;;;;;;10970019;32;20049;-74
2022/03/08 00:16:33;;;;;;;22.08;12.93;;;7.90;70.60;;;;;;10983440;32;20428;-74
2022/03/08 00:22:38;;;;;;;16.40;11.52;;;8.00;70.80;;;;;;10983083;32;20378;-74
2022/03/08 00:28:40;;;;;;;16.33;11.85;;;8.10;71.00;;;;;;10982914;32;20019;-73
2022/03/08 00:34:42;;;;;;;24.60;15.93;;;8.20;71.40;;;;;;10982680;32;20049;-73
2022/03/08 00:40:45;;;;;;;19.92;13.10;;;8.20;71.30;;;;;;10968962;32;20018;-73
2022/03/08 00:46:50;;;;;;;24.05;14.55;;;8.20;72.00;;;;;;10982311;32;20362;-73
2022/03/08 00:52:53;;;;;;;22.00;15.20;;;8.10;72.00;;;;;;10978394;32;20018;-73
2022/03/08 00:58:55;;;;;;;19.33;10.80;;;8.20;71.80;;;;;;10981795;32;20014;-73
2022/03/08 01:04:58;;;;;;;17.80;11.05;;;8.20;72.60;;;;;;10979704;32;20023;-73
2022/03/08 01:11:00;;;;;;;13.80;9.80;;;8.20;72.80;;;;;;10981449;32;20041;-73
2022/03/08 01:17:03;;;;;;;14.87;10.25;;;8.20;72.80;;;;;;10981185;32;20371;-73
2022/03/08 01:23:06;;;;;;;16.85;11.32;;;8.30;72.70;;;;;;10980762;32;20385;-72
2022/03/08 01:29:07;;;;;;;22.70;14.10;;;8.20;72.80;;;;;;10981104;32;20042;-72
2022/03/08 01:35:10;;;;;;;13.32;10.38;;;8.20;72.50;;;;;;10981064;32;20323;-72
2022/03/08 01:41:13;;;;;;;21.83;14.93;;;8.20;72.40;;;;;;10980812;32;20330;-72
2022/03/08 01:47:17;;;;;;;20.77;13.77;;;8.20;71.90;;;;;;10980421;32;20030;-73
2022/03/08 01:53:20;;;;;;;17.37;12.07;;;8.20;71.50;;;;;;10980124;32;20023;-73
2022/03/08 01:59:22;;;;;;;20.45;11.68;;;8.20;71.60;;;;;;10980011;32;20342;-72
2022/03/08 02:05:26;;;;;;;17.50;10.13;;;8.20;71.30;;;;;;10966505;32;20018;-73
2022/03/08 02:11:30;;;;;;;19.27;11.18;;;8.20;71.80;;;;;;10979816;32;20022;-73
2022/03/08 02:17:32;;;;;;;21.23;12.10;;;8.20;71.30;;;;;;10979872;32;20073;-73
2022/03/08 02:23:34;;;;;;;18.52;12.13;;;8.10;71.10;;;;;;10979283;32;20045;-73
2022/03/08 02:29:37;;;;;;;20.33;12.45;;;8.00;71.00;;;;;;10979542;32;20322;-73
2022/03/08 02:35:39;;;;;;;16.83;12.82;;;7.90;70.90;;;;;;10983899;32;20027;-73
2022/03/08 02:41:43;;;;;;;22.15;14.65;;;7.90;71.00;;;;;;10973394;32;20069;-73
2022/03/08 02:47:45;;;;;;;23.00;15.20;;;7.90;70.90;;;;;;10986658;32;20019;-73
2022/03/08 02:53:47;;;;;;;20.42;13.43;;;7.90;70.60;;;;;;10986372;32;20046;-73
2022/03/08 02:59:49;;;;;;;16.95;10.70;;;7.90;70.50;;;;;;10986061;32;20323;-73
2022/03/08 03:05:51;;;;;;;21.75;14.77;;;7.90;70.40;;;;;;10985997;32;20077;-73
2022/03/08 03:11:54;;;;;;;18.35;11.88;;;7.70;70.70;;;;;;10985794;32;20018;-72
2022/03/08 03:17:57;;;;;;;18.95;12.13;;;7.80;70.40;;;;;;10985615;32;20387;-73
2022/03/08 03:23:59;;;;;;;18.58;10.70;;;7.80;70.40;;;;;;10985232;32;20057;-73
2022/03/08 03:30:02;;;;;;;16.58;11.90;;;7.60;70.60;;;;;;10985099;32;20041;-73
2022/03/08 03:36:04;;;;;;;14.40;10.07;;;7.50;70.90;;;;;;10984964;32;20417;-73
2022/03/08 03:42:08;;;;;;;14.70;10.20;;;7.40;71.10;;;;;;10984590;32;20022;-73
2022/03/08 03:48:10;;;;;;;16.83;10.23;;;7.20;71.50;;;;;;10984116;32;20092;-73
2022/03/08 03:54:13;;;;;;;17.45;9.93;;;7.30;71.50;;;;;;10984270;32;20031;-72
2022/03/08 04:00:16;;;;;;;14.40;9.40;;;7.40;71.20;;;;;;10982304;32;20053;-73
2022/03/08 04:06:19;;;;;;;14.07;8.57;;;7.20;71.10;;;;;;10983847;32;20018;-73
2022/03/08 04:12:21;;;;;;;15.18;9.52;;;7.10;71.50;;;;;;10970295;32;20084;-73
2022/03/08 04:18:24;;;;;;;17.60;8.85;;;6.90;71.50;;;;;;10983178;32;20026;-73
2022/03/08 04:24:27;;;;;;;19.15;10.15;;;6.90;71.80;;;;;;10983237;32;20026;-73
2022/03/08 04:30:29;;;;;;;12.73;8.18;;;6.90;71.70;;;;;;10969544;32;20015;-73
2022/03/08 04:36:32;;;;;;;15.88;9.15;;;6.90;71.80;;;;;;10982742;32;20041;-72
2022/03/08 04:42:34;;;;;;;16.20;10.05;;;7.00;71.60;;;;;;10969130;32;20019;-72
2022/03/08 04:48:36;;;;;;;17.77;12.00;;;7.00;71.60;;;;;;10969186;32;20049;-72
2022/03/08 04:54:38;;;;;;;18.70;11.60;;;7.10;71.60;;;;;;10982354;32;20374;-72
2022/03/08 05:00:43;;;;;;;23.42;13.20;;;7.20;71.50;;;;;;10980834;32;20027;-72
2022/03/08 05:06:45;;;;;;;23.25;15.05;;;7.20;71.50;;;;;;10981820;32;20284;-72
2022/03/08 05:12:48;;;;;;;15.77;10.15;;;7.30;71.30;;;;;;10981704;32;20049;-72
2022/03/08 05:18:50;;;;;;;18.00;11.85;;;7.20;71.00;;;;;;11014108;27;20034;-72
2022/03/08 05:24:52;;;;;;;14.63;9.93;;;7.20;71.10;;;;;;11019493;32;20180;-72
2022/03/08 05:30:54;;;;;;;19.15;14.02;;;7.20;71.10;;;;;;11014940;32;20034;-72
2022/03/08 05:36:56;;;;;;;15.60;10.90;;;7.20;71.40;;;;;;11019092;32;20019;-72
2022/03/08 05:43:00;;;;;;;17.55;13.10;;;7.20;71.20;;;;;;11018941;32;20057;-72
2022/03/08 05:49:03;;;;;;;18.52;12.15;;;7.20;71.10;;;;;;11016948;32;20080;-72
2022/03/08 05:55:34;;;;;;;18.95;12.88;;;7.20;71.00;;;;;;11018845;32;20022;-72
2022/03/08 06:01:36;;;;;;;19.30;12.70;;;7.20;71.00;;;;;;11017615;32;20031;-71
2022/03/08 06:07:39;;;;;;;19.37;13.65;;;7.20;71.20;;;;;;11018403;32;20023;-71
2022/03/08 06:13:41;;;;;;;15.50;10.60;;;7.20;71.10;;;;;;11018299;32;20030;-71
2022/03/08 06:19:43;;;;;;;14.57;11.43;;;7.40;71.10;;;;;;11018036;32;20100;-71
2022/03/08 06:32:58;;;;;;;18.62;13.90;;;7.60;70.70;;;;;;11018098;32;20023;-71
2022/03/08 06:39:02;;;;;;;19.37;12.52;;;7.70;70.20;;;;;;11017986;32;20022;-71
2022/03/08 06:45:08;;;;;;;18.00;11.82;;;7.80;69.90;;;;;;11017784;32;20348;-71
2022/03/08 06:51:30;;;;;;;20.85;13.32;;;7.90;69.80;;;;;;11017698;32;20023;-71
2022/03/08 06:57:32;;;;;;;20.58;13.70;;;8.10;69.80;;;;;;11017608;32;20049;-71
2022/03/08 07:03:34;;;;;;;28.45;18.10;;;8.10;69.80;;;;;;11017252;32;20022;-71
2022/03/08 07:10:02;;;;;;;19.12;12.50;;;8.20;69.80;;;;;;11016871;32;20019;-72
2022/03/08 07:16:05;;;;;;;22.75;16.70;;;7.90;70.00;;;;;;11011385;32;20053;-71
2022/03/08 07:22:07;;;;;;;17.45;11.45;;;7.80;70.50;;;;;;10998692;32;20038;-73
2022/03/08 07:28:09;;;;;;;17.80;12.63;;;7.70;69.60;;;;;;11017536;32;20045;-73
2022/03/08 07:34:18;;;;;;;16.42;10.77;;;7.50;68.90;;;;;;11021223;32;20023;-73
2022/03/08 07:40:25;;;;;;;19.33;11.00;;;7.60;69.80;;;;;;11009450;32;20322;-73
2022/03/08 07:46:28;;;;;;;13.90;9.45;;;7.70;68.10;;;;;;11022658;32;20033;-73
2022/03/08 07:52:30;;;;;;;18.65;11.40;;;7.60;68.90;;;;;;11020895;32;20402;-73
2022/03/08 07:58:47;;;;;;;14.95;10.43;;;8.00;69.40;;;;;;11008622;32;20053;-74
2022/03/08 08:05:19;;;;;;;14.82;8.05;;;8.20;69.40;;;;;;11021644;32;20018;-73
2022/03/08 08:11:34;;;;;;;12.88;7.78;;;8.60;68.90;;;;;;11021764;32;20014;-73
2022/03/08 08:17:36;;;;;;;13.13;7.40;;;8.60;68.90;;;;;;11021792;32;20019;-74
2022/03/08 08:23:38;;;;;;;12.93;8.13;;;8.40;66.90;;;;;;11019648;32;20019;-73
2022/03/08 08:29:57;;;;;;;10.18;6.72;;;8.20;67.70;;;;;;11021039;32;20333;-72
2022/03/08 08:36:00;;;;;;;11.52;7.22;;;8.20;67.30;;;;;;11020439;32;20018;-71
2022/03/08 08:42:02;;;;;;;15.70;9.15;;;8.10;66.80;;;;;;11019972;32;20026;-71
2022/03/08 08:48:06;;;;;;;15.10;9.43;;;8.10;66.80;;;;;;11015635;32;20018;-71
2022/03/08 08:54:09;;;;;;;12.02;7.15;;;8.10;66.40;;;;;;11004746;32;20049;-71
2022/03/08 09:00:12;;;;;;;12.50;7.55;;;8.10;65.40;;;;;;11019333;32;20022;-72
2022/03/08 09:06:34;;;;;;;11.90;6.57;;;8.40;66.30;;;;;;11020139;32;20049;-73
2022/03/08 09:12:36;;;;;;;10.93;7.25;;;8.50;64.60;;;;;;11015614;32;20049;-73
2022/03/08 09:19:03;;;;;;;15.57;8.73;;;8.50;65.70;;;;;;11019379;32;20040;-73
2022/03/08 09:25:12;;;;;;;12.40;7.05;;;8.70;63.30;;;;;;11005978;32;20018;-73
2022/03/08 09:31:14;;;;;;;12.90;5.95;;;8.60;62.60;;;;;;11018801;32;20014;-72
2022/03/08 09:37:17;;;;;;;13.57;8.82;;;8.70;65.30;;;;;;11018236;32;20287;-71
2022/03/08 09:43:40;;;;;;;12.15;7.18;;;8.80;63.70;;;;;;11017378;32;20424;-73
2022/03/08 09:49:42;;;;;;;13.57;7.87;;;8.70;59.70;;;;;;11017446;32;20386;-73
2022/03/08 09:55:44;;;;;;;14.20;7.70;;;8.70;60.40;;;;;;11016772;32;20023;-72
2022/03/08 10:02:14;;;;;;;13.70;8.52;;;8.60;59.30;;;;;;11016662;32;20022;-73
2022/03/08 10:08:21;;;;;;;;;;;8.80;62.60;;;;;;11017217;32;20416;-72
2022/03/08 10:14:42;;;;;;;14.25;9.68;;;9.10;61.30;;;;;;11017004;32;20194;-72
2022/03/08 10:20:45;;;;;;;11.25;6.85;;;9.20;60.90;;;;;;11016358;32;20018;-73
2022/03/08 10:26:57;;;;;;;18.55;12.02;;;9.40;62.10;;;;;;11005634;32;20391;-71
2022/03/08 10:32:59;;;;;;;17.35;10.55;;;9.60;58.80;;;;;;10973840;32;20042;-71
2022/03/08 10:39:14;;;;;;;14.93;9.18;;;9.30;56.30;;;;;;10988058;32;20346;-73
2022/03/08 10:45:18;;;;;;;13.30;9.38;;;9.40;59.10;;;;;;11014626;32;20026;-72
2022/03/08 10:51:21;;;;;;;22.45;13.48;;;9.70;59.10;;;;;;11015936;32;20350;-71
2022/03/08 10:57:33;;;;;;;14.48;8.95;;;9.80;56.10;;;;;;11019979;32;20052;-72
2022/03/08 11:03:35;;;;;;;19.35;12.10;;;10.00;58.30;;;;;;11022588;32;20329;-72
2022/03/08 11:09:39;;;;;;;18.45;13.32;;;10.20;56.20;;;;;;11022332;32;20022;-71
2022/03/08 11:15:45;;;;;;;13.60;9.00;;;10.20;54.20;;;;;;11020302;32;20026;-72
2022/03/08 11:21:51;;;;;;;13.57;8.15;;;10.40;56.60;;;;;;11022356;32;20049;-72
2022/03/08 11:27:54;;;;;;;15.77;9.07;;;10.70;56.30;;;;;;11022467;32;20357;-71
2022/03/08 11:34:03;;;;;;;11.25;6.93;;;10.80;54.00;;;;;;11022202;32;20022;-72
2022/03/08 11:40:16;;;;;;;16.60;6.78;;;11.10;55.00;;;;;;11021841;32;20030;-72
2022/03/08 11:46:21;;;;;;;18.85;11.63;;;11.70;55.70;;;;;;11021393;32;20038;-72
2022/03/08 11:52:35;;;;;;;16.02;11.80;;;11.90;52.90;;;;;;11021257;32;20433;-71
2022/03/08 11:58:47;;;;;;;10.18;6.72;;;11.80;50.60;;;;;;11008045;32;20018;-72
2022/03/08 12:04:49;;;;;;;17.73;10.73;;;11.70;52.30;;;;;;11006401;32;20027;-73
2022/03/08 12:11:03;;;;;;;14.70;9.07;;;12.00;52.30;;;;;;11017727;32;20056;-72
2022/03/08 12:17:23;;;;;;;14.60;7.70;;;12.10;51.00;;;;;;10994945;32;20061;-72
2022/03/08 12:23:26;;;;;;;24.37;12.80;;;12.30;51.60;;;;;;10982022;32;20022;-70
2022/03/08 12:29:53;;;;;;;14.87;9.55;;;12.10;49.70;;;;;;10968104;32;20030;-71
2022/03/08 12:35:57;;;;;;;16.77;10.70;;;12.00;49.70;;;;;;10978450;32;20049;-70
2022/03/08 12:41:59;;;;;;;15.35;10.45;;;12.20;47.30;;;;;;10981338;32;20026;-71
2022/03/08 12:48:04;;;;;;;14.90;10.07;;;11.90;47.10;;;;;;10981260;32;20330;-71
2022/03/08 12:54:09;;;;;;;17.12;9.88;;;12.20;49.40;;;;;;10981508;32;20054;-71
2022/03/08 13:00:23;;;;;;;17.58;10.50;;;12.40;48.50;;;;;;10981000;32;20014;-70
2022/03/08 13:06:25;;;;;;;14.75;9.73;;;12.60;45.70;;;;;;10981330;32;20424;-71
2022/03/08 13:12:32;;;;;;;12.48;8.52;;;12.40;46.60;;;;;;10992842;32;20022;-71
2022/03/08 13:18:37;;;;;;;17.33;13.48;;;12.60;47.40;;;;;;10558821;27;12211018;-70
2022/03/08 13:24:40;;;;;;;18.62;14.43;;;12.70;49.80;;;;;;10900811;32;20027;-71
2022/03/08 13:30:50;;;;;;;21.60;15.57;;;12.50;47.30;;;;;;10900392;32;20031;-70
2022/03/08 13:36:56;;;;;;;17.85;13.10;;;12.50;43.60;;;;;;10901383;32;20027;-71
2022/03/08 13:43:00;;;;;;;25.58;12.80;;;12.50;46.40;;;;;;10922106;32;20034;-70
2022/03/08 13:49:08;;;;;;;14.48;8.95;;;12.50;46.70;;;;;;10941956;32;20015;-71
2022/03/08 13:55:13;;;;;;;13.18;8.60;;;12.80;49.30;;;;;;10942083;32;20057;-71
2022/03/08 14:01:16;;;;;;;13.65;8.55;;;13.10;49.40;;;;;;10936271;32;20027;-70
2022/03/08 14:07:21;;;;;;;15.07;12.00;;;13.20;47.00;;;;;;10921716;32;20042;-71
2022/03/08 14:13:24;;;;;;;23.20;13.30;;;13.30;47.80;;;;;;10938394;32;20055;-72
2022/03/08 14:19:47;;;;;;;15.18;10.45;;;13.40;48.70;;;;;;10941528;32;20324;-71
2022/03/08 14:26:07;;;;;;;14.93;9.10;;;13.50;48.20;;;;;;10939948;32;20053;-72
2022/03/08 14:32:12;;;;;;;18.35;15.23;;;13.80;47.90;;;;;;10909378;32;20399;-71
2022/03/08 14:38:16;;;;;;;19.92;15.98;;;13.80;48.40;;;;;;10927172;32;20458;-71
2022/03/08 14:44:19;;;;;;;21.15;14.65;;;13.70;48.40;;;;;;10948411;32;20045;-70
2022/03/08 14:50:21;;;;;;;12.02;7.55;;;13.90;48.90;;;;;;10932205;32;20346;-72
2022/03/08 14:56:23;;;;;;;17.17;9.15;;;13.80;47.50;;;;;;10945553;32;20100;-72
2022/03/08 15:02:26;;;;;;;12.43;8.70;;;14.00;46.60;;;;;;10931298;32;20027;-72
2022/03/08 15:20:59;;;;;;;17.27;13.35;;;14.40;48.80;;;;;;10607981;32;13095503;-71
2022/03/08 15:27:02;;;;;;;15.95;10.88;;;15.20;43.20;;;;;;10971048;32;20390;-71
2022/03/08 15:33:04;;;;;;;16.12;13.60;;;15.20;43.10;;;;;;10971559;32;20031;-72
2022/03/08 15:39:07;;;;;;;20.10;13.18;;;15.60;43.50;;;;;;10970490;32;20031;-71
2022/03/08 15:45:11;;;;;;;11.77;8.57;;;15.90;45.60;;;;;;10998702;32;20034;-71
2022/03/08 15:51:18;;;;;;;11.65;8.77;;;16.70;48.20;;;;;;11012092;32;20325;-71
2022/03/08 15:57:21;;;;;;;13.75;10.40;;;17.40;47.30;;;;;;11011637;32;20072;-72
2022/03/08 16:03:23;;;;;;;14.75;10.60;;;17.80;45.90;;;;;;11010320;32;20049;-71
2022/03/08 16:09:25;;;;;;;13.35;8.63;;;17.60;44.60;;;;;;11011142;32;20030;-71
2022/03/08 16:15:28;;;;;;;16.33;10.88;;;17.60;45.00;;;;;;11009910;32;20053;-71
2022/03/08 16:21:30;;;;;;;10.93;8.30;;;17.80;44.40;;;;;;10953798;32;20049;-70
2022/03/08 16:27:34;;;;;;;11.00;7.35;;;17.70;45.30;;;;;;10947498;32;20061;-70
2022/03/08 16:33:36;;;;;;;7.68;5.43;;;17.50;45.50;;;;;;10942442;32;20030;-70
2022/03/08 16:39:38;;;;;;;10.77;7.53;;;16.80;46.80;;;;;;10953661;32;20457;-70
2022/03/08 16:45:40;;;;;;;12.63;6.15;;;16.10;48.30;;;;;;10983662;32;20031;-70
2022/03/08 16:51:43;;;;;;;8.40;5.45;;;15.60;49.50;;;;;;10946832;32;20019;-70
2022/03/08 16:57:47;;;;;;;9.25;6.93;;;14.70;51.10;;;;;;10946553;32;20034;-70
2022/03/08 17:03:49;;;;;;;10.68;6.43;;;13.90;52.80;;;;;;10946480;32;20304;-70
2022/03/08 17:09:51;;;;;;;11.00;8.32;;;13.60;53.90;;;;;;10945855;32;20032;-70
2022/03/08 17:15:53;;;;;;;10.07;6.82;;;13.40;54.60;;;;;;10946085;32;20065;-70
2022/03/08 17:21:56;;;;;;;12.07;6.50;;;13.20;55.30;;;;;;10944841;32;20053;-70
2022/03/08 17:27:58;;;;;;;9.80;6.32;;;13.00;56.00;;;;;;10945018;32;20058;-70
2022/03/08 17:34:01;;;;;;;11.50;8.32;;;12.70;56.60;;;;;;10945350;32;20429;-70
2022/03/08 17:40:05;;;;;;;10.80;7.22;;;12.50;57.20;;;;;;10944012;32;20019;-70
2022/03/08 17:46:08;;;;;;;9.48;6.25;;;12.30;57.60;;;;;;10945412;32;20038;-70
2022/03/08 17:52:10;;;;;;;11.02;6.62;;;12.10;57.90;;;;;;10944724;32;20039;-70
2022/03/08 17:58:12;;;;;;;11.05;7.20;;;11.80;58.60;;;;;;10944455;32;20054;-70
2022/03/08 18:04:14;;;;;;;8.55;5.93;;;11.50;58.60;;;;;;10944459;32;20069;-70
2022/03/08 18:10:16;;;;;;;12.13;7.68;;;11.20;58.90;;;;;;10944199;32;20034;-70
2022/03/08 18:16:19;;;;;;;7.35;5.18;;;11.10;58.70;;;;;;10943654;32;20051;-70
2022/03/08 18:22:21;;;;;;;11.02;6.87;;;10.90;59.10;;;;;;10943825;32;20027;-70
2022/03/08 18:28:23;;;;;;;10.25;6.15;;;10.80;59.40;;;;;;10943459;32;20386;-70
2022/03/08 18:34:25;;;;;;;14.87;9.60;;;10.70;59.90;;;;;;10943246;32;20038;-70
2022/03/08 18:40:28;;;;;;;15.95;10.57;;;10.70;60.30;;;;;;10942070;32;20023;-70
2022/03/08 18:46:30;;;;;;;14.87;10.07;;;10.80;60.20;;;;;;10943309;32;20035;-70
2022/03/08 18:52:32;;;;;;;11.38;8.02;;;10.70;58.90;;;;;;10942517;32;20445;-70
2022/03/08 18:58:34;;;;;;;13.70;8.93;;;10.50;59.90;;;;;;10942338;32;20338;-70
2022/03/08 19:04:37;;;;;;;16.00;12.40;;;10.40;60.40;;;;;;10941671;32;20023;-70
2022/03/08 19:10:39;;;;;;;15.27;10.85;;;10.30;60.80;;;;;;10941833;32;20054;-70
2022/03/08 19:16:41;;;;;;;17.02;11.88;;;10.60;60.80;;;;;;10941825;32;20019;-70
2022/03/08 19:22:43;;;;;;;18.55;14.00;;;10.50;60.40;;;;;;10941225;32;20061;-70
2022/03/08 19:28:46;;;;;;;18.80;12.60;;;10.40;61.10;;;;;;10941466;32;20351;-70
2022/03/08 19:34:48;;;;;;;16.35;12.00;;;10.50;61.40;;;;;;10941415;32;20358;-70
2022/03/08 19:40:52;;;;;;;19.12;12.80;;;10.70;61.10;;;;;;10941002;32;20026;-70
2022/03/08 19:46:54;;;;;;;16.73;11.70;;;10.60;61.10;;;;;;10941024;32;20054;-70
2022/03/08 19:52:57;;;;;;;16.67;10.98;;;10.20;62.00;;;;;;10942657;32;20027;-70
2022/03/08 19:59:01;;;;;;;24.25;16.58;;;10.20;62.60;;;;;;10948060;32;20476;-70
2022/03/08 20:05:04;;;;;;;16.12;10.80;;;10.30;62.30;;;;;;10947423;32;20433;-70
2022/03/08 20:11:06;;;;;;;22.83;14.65;;;10.40;62.20;;;;;;10947801;32;20030;-70
2022/03/08 20:17:09;;;;;;;21.10;13.45;;;10.50;62.20;;;;;;10947495;32;20485;-70
2022/03/08 20:23:12;;;;;;;19.30;12.25;;;10.40;62.20;;;;;;10947300;32;20035;-71
2022/03/08 20:29:14;;;;;;;23.25;13.75;;;10.00;62.90;;;;;;10946972;32;20049;-70
2022/03/08 20:35:17;;;;;;;25.75;17.77;;;10.00;63.30;;;;;;10946803;32;20061;-70
2022/03/08 20:41:20;;;;;;;19.80;14.25;;;9.80;63.60;;;;;;10946841;32;20049;-70
2022/03/08 20:47:23;;;;;;;23.40;15.43;;;9.90;63.50;;;;;;10946762;32;20057;-70
2022/03/08 20:53:25;;;;;;;25.98;19.00;;;9.80;63.60;;;;;;10946720;32;20323;-70
2022/03/08 20:59:27;;;;;;;21.62;15.95;;;9.80;63.70;;;;;;10945489;32;20440;-70
2022/03/08 21:05:30;;;;;;;26.37;19.23;;;9.70;63.90;;;;;;10945594;32;20023;-71
2022/03/08 21:11:34;;;;;;;29.85;19.83;;;9.90;63.80;;;;;;10943563;32;20054;-70
2022/03/08 21:17:36;;;;;;;31.20;20.73;;;9.90;63.80;;;;;;10941834;32;20023;-70
2022/03/08 21:23:39;;;;;;;23.23;16.33;;;9.80;63.80;;;;;;10941625;32;20449;-70
2022/03/08 21:29:42;;;;;;;26.83;15.65;;;9.50;64.10;;;;;;10945498;32;20402;-70
2022/03/08 21:35:44;;;;;;;19.73;13.13;;;9.20;64.90;;;;;;10945261;32;20031;-70
2022/03/08 21:41:46;;;;;;;18.05;12.63;;;8.80;65.40;;;;;;10942952;32;20027;-70
2022/03/08 21:47:49;;;;;;;20.55;13.02;;;8.60;65.90;;;;;;10944803;32;20066;-70
2022/03/08 21:53:51;;;;;;;27.55;17.70;;;8.50;66.20;;;;;;10944740;32;20031;-70
2022/03/08 21:59:53;;;;;;;27.75;19.60;;;8.70;66.40;;;;;;10944398;32;20034;-70
2022/03/08 22:05:55;;;;;;;23.60;17.20;;;9.00;65.90;;;;;;10944130;32;20057;-70
2022/03/08 22:11:57;;;;;;;22.15;14.07;;;9.20;65.50;;;;;;10941785;32;20057;-70
2022/03/08 22:18:00;;;;;;;23.77;17.90;;;9.20;65.20;;;;;;10942585;32;20049;-70
2022/03/08 22:24:02;;;;;;;21.50;15.18;;;9.20;65.60;;;;;;10942551;32;20026;-72
2022/03/08 22:30:06;;;;;;;27.27;20.52;;;9.20;65.50;;;;;;10938995;32;20382;-70
2022/03/08 22:36:08;;;;;;;30.73;23.50;;;9.10;65.40;;;;;;10942477;32;20398;-70
2022/03/08 22:42:11;;;;;;;22.75;15.38;;;9.10;65.00;;;;;;10943234;32;20045;-70
2022/03/08 22:48:13;;;;;;;32.67;20.95;;;9.00;64.70;;;;;;10942867;32;20039;-70
2022/03/08 22:54:19;;;;;;;27.27;21.62;;;8.90;64.90;;;;;;10942352;32;20053;-70
2022/03/08 23:00:22;;;;;;;26.52;18.95;;;8.80;64.60;;;;;;10942558;32;20027;-70
2022/03/08 23:06:24;;;;;;;23.38;17.17;;;8.90;65.20;;;;;;10942482;32;20112;-70
2022/03/08 23:12:26;;;;;;;23.65;15.93;;;8.70;65.20;;;;;;10942585;32;20027;-70
2022/03/08 23:18:29;;;;;;;24.63;17.15;;;8.60;65.50;;;;;;10944264;27;20070;-70
2022/03/08 23:24:35;;;;;;;22.75;16.90;;;8.60;65.50;;;;;;10941945;32;20049;-71
2022/03/08 23:30:38;;;;;;;26.15;16.33;;;8.50;65.80;;;;;;10947104;32;20342;-70
2022/03/08 23:36:42;;;;;;;25.60;17.98;;;8.30;66.10;;;;;;10949514;32;20041;-70
2022/03/08 23:42:44;;;;;;;23.65;18.15;;;8.20;66.30;;;;;;10949177;32;20053;-70
2022/03/08 23:48:46;;;;;;;28.40;17.37;;;8.20;66.30;;;;;;10935517;32;20023;-70
2022/03/08 23:54:51;;;;;;;35.72;23.90;;;8.20;66.40;;;;;;10931460;32;20027;-70
